Time;durP1;ratioP1;P1;durP2;ratioP2;P2;SDS_P1;SDS_P2;PMS_P1;PMS_P2;Temp;Humidity;BMP_temperature;BMP_pressure;BME280_temperature;BME280_humidity;BME280_pressure;Samples;Min_cycle;Max_cycle;Signal;HPM_P1;HPM_P2
2023/06/14 00:01:20;;;;;;;6.78;1.52;;;;;;;;;;5135446;27;20050;-64
2023/06/14 00:03:47;;;;;;;4.35;1.95;;;16.90;99.90;;;;;;5096211;28;20048;-64
2023/06/14 00:06:13;;;;;;;2.78;1.40;;;;;;;;;;5106542;28;20051;-65
2023/06/14 00:08:40;;;;;;;3.53;1.38;;;;;;;;;;5096062;28;20495;-65
2023/06/14 00:11:06;;;;;;;5.03;1.60;;;16.90;99.90;;;;;;5101291;28;20093;-65
2023/06/14 00:13:32;;;;;;;4.57;1.20;;;16.90;99.90;;;;;;5102123;28;20115;-65
2023/06/14 00:15:58;;;;;;;3.25;1.27;;;;;;;;;;5098858;28;20476;-65
2023/06/14 00:18:24;;;;;;;7.50;1.40;;;;;;;;;;5101935;28;20043;-65
2023/06/14 00:20:51;;;;;;;6.28;1.27;;;16.80;99.90;;;;;;5100158;28;20036;-64
2023/06/14 00:23:17;;;;;;;4.05;1.17;;;16.70;99.90;;;;;;5100097;28;20052;-64
2023/06/14 00:25:43;;;;;;;5.57;1.60;;;;;;;;;;5096122;28;20032;-65
2023/06/14 00:28:09;;;;;;;4.90;1.60;;;;;;;;;;5101520;28;20404;-64
2023/06/14 00:30:35;;;;;;;10.63;3.13;;;;;;;;;;5089875;28;20040;-64
2023/06/14 00:33:01;;;;;;;4.35;1.77;;;16.60;99.90;;;;;;5095998;28;20032;-64
2023/06/14 00:35:27;;;;;;;4.00;1.40;;;16.50;99.90;;;;;;5096162;27;20099;-65
2023/06/14 00:37:54;;;;;;;6.07;1.50;;;16.50;99.90;;;;;;5103676;28;20644;-65
2023/06/14 00:40:21;;;;;;;3.88;1.15;;;16.40;99.90;;;;;;5099028;28;20105;-64
2023/06/14 00:42:46;;;;;;;5.30;1.45;;;16.50;99.90;;;;;;5104298;28;20040;-64
2023/06/14 00:45:12;;;;;;;3.33;1.50;;;16.50;99.90;;;;;;5137645;27;20044;-64
2023/06/14 00:47:41;;;;;;;4.10;1.73;;;16.50;99.90;;;;;;5093626;28;20072;-64
2023/06/14 00:50:07;;;;;;;3.50;1.73;;;16.40;99.90;;;;;;5101696;28;20064;-64
2023/06/14 00:52:34;;;;;;;5.68;1.77;;;;;;;;;;5101020;28;20564;-64
2023/06/14 00:55:00;;;;;;;4.05;1.25;;;16.10;99.90;;;;;;5103444;28;20044;-64
2023/06/14 00:57:26;;;;;;;7.05;1.45;;;;;;;;;;5101660;28;20042;-64
2023/06/14 00:59:52;;;;;;;5.68;1.55;;;16.20;99.90;;;;;;5104047;28;20031;-64
2023/06/14 01:02:18;;;;;;;5.68;1.48;;;16.10;99.90;;;;;;5136959;27;20116;-64
2023/06/14 01:04:47;;;;;;;5.03;1.48;;;16.30;99.90;;;;;;5096932;28;20551;-64
2023/06/14 01:07:33;;;;;;;4.25;1.50;;;16.10;99.90;;;;;;5104504;28;20481;-64
2023/06/14 01:09:59;;;;;;;5.25;1.65;;;;;;;;;;5095749;28;20059;-64
2023/06/14 01:12:45;;;;;;;7.45;1.42;;;16.10;99.90;;;;;;5104362;28;20040;-64
2023/06/14 01:15:13;;;;;;;5.47;2.20;;;16.00;99.90;;;;;;5100925;28;20048;-65
2023/06/14 01:17:43;;;;;;;6.63;1.60;;;15.80;99.90;;;;;;5105373;28;20043;-64
2023/06/14 01:20:10;;;;;;;4.95;1.45;;;;;;;;;;5088936;28;20054;-64
2023/06/14 01:22:36;;;;;;;6.82;1.80;;;15.90;99.90;;;;;;5103567;28;20043;-64
2023/06/14 01:25:02;;;;;;;2.38;1.67;;;;;;;;;;5132912;27;20166;-64
2023/06/14 01:27:32;;;;;;;3.22;1.38;;;15.90;99.90;;;;;;5101514;28;20036;-64
2023/06/14 01:30:00;;;;;;;3.58;1.20;;;15.80;99.90;;;;;;5101486;28;20040;-64
2023/06/14 01:32:29;;;;;;;3.72;1.45;;;15.80;99.90;;;;;;5107170;28;20417;-64
2023/06/14 01:34:54;;;;;;;3.97;1.17;;;15.80;99.90;;;;;;5096683;28;20038;-64
2023/06/14 01:37:21;;;;;;;5.05;1.70;;;15.70;99.90;;;;;;5099511;28;20048;-64
2023/06/14 01:39:49;;;;;;;4.97;1.95;;;15.70;99.90;;;;;;5097193;28;20093;-64
2023/06/14 01:42:16;;;;;;;2.33;1.40;;;15.70;99.90;;;;;;5100845;28;20072;-64
2023/06/14 01:44:44;;;;;;;3.28;1.50;;;15.60;99.90;;;;;;5099667;28;20084;-64
2023/06/14 01:47:10;;;;;;;2.17;1.23;;;;;;;;;;5097219;28;20493;-65
2023/06/14 01:49:36;;;;;;;5.55;1.75;;;;;;;;;;5102031;28;20082;-65
2023/06/14 01:52:02;;;;;;;8.35;1.85;;;;;;;;;;5101981;28;20047;-64
2023/06/14 01:54:29;;;;;;;8.52;1.55;;;15.70;99.90;;;;;;5137467;27;20039;-64
2023/06/14 01:56:55;;;;;;;4.10;1.60;;;;;;;;;;5106023;28;20044;-64
2023/06/14 01:59:21;;;;;;;2.28;1.27;;;;;;;;;;5101667;28;20679;-64
2023/06/14 02:01:47;;;;;;;5.78;1.30;;;;;;;;;;5091320;28;20052;-64
2023/06/14 02:04:12;;;;;;;4.43;1.80;;;;;;;;;;5091010;28;20472;-64
2023/06/14 02:06:38;;;;;;;4.93;1.42;;;;;;;;;;5126469;27;20106;-64
2023/06/14 02:09:04;;;;;;;6.70;1.60;;;15.40;99.90;;;;;;5095599;28;20058;-64
2023/06/14 02:11:30;;;;;;;2.38;1.42;;;;;;;;;;5102547;28;20090;-64
2023/06/14 02:13:56;;;;;;;5.63;1.98;;;;;;;;;;5097725;28;20052;-64
2023/06/14 02:16:22;;;;;;;5.78;1.60;;;;;;;;;;5103467;28;20490;-64
2023/06/14 02:18:48;;;;;;;4.38;2.03;;;15.40;99.90;;;;;;5103610;28;20040;-64
2023/06/14 02:21:14;;;;;;;9.27;2.13;;;15.30;99.90;;;;;;5102792;28;20032;-64
2023/06/14 02:23:41;;;;;;;3.88;1.73;;;;;;;;;;5103254;28;20044;-64
2023/06/14 02:26:07;;;;;;;5.85;2.03;;;;;;;;;;5105430;28;20083;-64
2023/06/14 02:28:33;;;;;;;4.43;2.08;;;;;;;;;;5098786;28;20103;-64
2023/06/14 02:30:58;;;;;;;4.88;1.63;;;15.20;99.90;;;;;;5093048;28;20043;-64
2023/06/14 02:33:24;;;;;;;4.95;2.10;;;15.00;99.90;;;;;;5103414;28;20048;-64
2023/06/14 02:35:52;;;;;;;3.72;2.10;;;;;;;;;;5098749;28;20123;-64
2023/06/14 02:38:18;;;;;;;5.18;1.50;;;;;;;;;;5095401;28;20051;-64
2023/06/14 02:40:44;;;;;;;4.45;2.10;;;15.20;99.90;;;;;;5095984;28;20036;-64
2023/06/14 02:43:09;;;;;;;4.32;1.90;;;14.90;99.90;;;;;;5140409;27;20047;-64
2023/06/14 02:45:35;;;;;;;4.00;2.20;;;;;;;;;;5137715;27;20044;-64
2023/06/14 02:48:01;;;;;;;2.53;1.58;;;15.00;99.90;;;;;;5105850;28;20039;-64
2023/06/14 02:50:28;;;;;;;3.67;1.88;;;;;;;;;;5132119;27;20048;-64
2023/06/14 02:52:55;;;;;;;6.15;1.80;;;;;;;;;;5106068;27;20118;-64
2023/06/14 02:55:21;;;;;;;4.45;1.65;;;14.90;99.90;;;;;;5092101;28;20100;-64
2023/06/14 02:57:48;;;;;;;4.68;2.30;;;;;;;;;;5092956;28;20051;-64
2023/06/14 03:00:14;;;;;;;8.77;2.10;;;;;;;;;;5100559;28;20859;-64
2023/06/14 03:02:39;;;;;;;5.45;1.73;;;14.90;99.90;;;;;;5102262;28;20040;-64
2023/06/14 03:05:07;;;;;;;5.70;1.75;;;14.80;99.90;;;;;;5137412;27;20059;-64
2023/06/14 03:07:34;;;;;;;5.78;1.48;;;;;;;;;;5098855;28;20058;-64
2023/06/14 03:09:59;;;;;;;5.45;1.70;;;14.90;99.90;;;;;;5104456;28;20486;-64
2023/06/14 03:12:26;;;;;;;4.72;1.70;;;14.90;99.90;;;;;;5102928;28;20079;-64
2023/06/14 03:14:51;;;;;;;8.60;2.70;;;14.70;99.90;;;;;;5085845;28;20074;-64
2023/06/14 03:17:19;;;;;;;4.40;1.50;;;14.80;99.90;;;;;;5138862;27;20075;-64
2023/06/14 03:19:44;;;;;;;3.38;1.75;;;14.70;99.90;;;;;;5091498;28;20039;-64
2023/06/14 03:22:11;;;;;;;9.07;1.90;;;14.60;99.90;;;;;;5101011;28;20461;-64
2023/06/14 03:24:37;;;;;;;5.32;1.90;;;14.60;99.90;;;;;;5099505;28;20500;-64
2023/06/14 03:27:03;;;;;;;3.78;1.60;;;14.70;99.90;;;;;;5104290;28;20044;-64
2023/06/14 03:29:29;;;;;;;7.03;1.70;;;;;;;;;;5095971;28;20545;-64
2023/06/14 03:31:59;;;;;;;7.72;2.22;;;;;;;;;;5104863;28;20042;-64
2023/06/14 03:34:25;;;;;;;3.47;1.88;;;14.60;99.90;;;;;;5092949;28;20050;-64
2023/06/14 03:36:50;;;;;;;4.72;1.92;;;14.50;99.90;;;;;;5100564;28;20549;-64
2023/06/14 03:39:16;;;;;;;3.95;1.77;;;;;;;;;;5096190;28;20089;-64
2023/06/14 03:41:42;;;;;;;7.47;1.80;;;14.60;99.90;;;;;;5098819;28;20039;-64
2023/06/14 03:44:07;;;;;;;4.97;2.20;;;14.50;99.90;;;;;;5094765;28;20812;-64
2023/06/14 03:46:33;;;;;;;4.40;2.90;;;;;;;;;;5130524;27;20447;-64
2023/06/14 03:49:00;;;;;;;7.35;1.80;;;;;;;;;;5101484;28;20042;-65
2023/06/14 03:51:26;;;;;;;3.10;1.40;;;14.60;99.90;;;;;;5100534;28;20066;-64
2023/06/14 03:53:52;;;;;;;3.55;1.88;;;;;;;;;;5097458;28;20043;-64
2023/06/14 03:56:17;;;;;;;4.38;1.70;;;14.70;99.90;;;;;;5102356;28;20115;-64
2023/06/14 03:58:43;;;;;;;5.32;1.88;;;14.70;99.90;;;;;;5102693;28;20102;-65
2023/06/14 04:01:09;;;;;;;6.32;1.85;;;;;;;;;;5099973;28;20048;-65
2023/06/14 04:03:34;;;;;;;4.38;2.03;;;14.60;99.90;;;;;;5104149;28;20050;-64
2023/06/14 04:06:01;;;;;;;3.78;2.03;;;14.80;99.90;;;;;;5099583;28;20044;-64
2023/06/14 04:08:27;;;;;;;6.43;1.88;;;;;;;;;;5093751;28;20039;-64
2023/06/14 04:10:52;;;;;;;4.18;1.40;;;14.60;99.90;;;;;;5097048;28;20040;-64
2023/06/14 04:13:18;;;;;;;4.90;1.90;;;14.90;99.90;;;;;;5096295;28;20036;-64
2023/06/14 04:15:45;;;;;;;3.38;1.80;;;14.70;99.90;;;;;;5101269;28;20080;-64
2023/06/14 04:18:12;;;;;;;3.30;1.83;;;14.80;99.90;;;;;;5099079;28;20044;-64
2023/06/14 04:20:37;;;;;;;4.72;1.98;;;14.90;99.90;;;;;;5100117;28;20421;-64
2023/06/14 04:23:17;;;;;;;5.80;1.90;;;14.80;99.90;;;;;;5099385;28;20040;-64
2023/06/14 04:25:45;;;;;;;4.40;1.90;;;14.90;99.90;;;;;;5102994;28;20040;-64
2023/06/14 04:28:17;;;;;;;4.35;1.70;;;14.90;99.90;;;;;;5102387;28;20408;-64
2023/06/14 04:30:44;;;;;;;4.53;2.10;;;14.80;99.90;;;;;;5103184;28;20047;-64
2023/06/14 04:33:10;;;;;;;6.80;2.20;;;;;;;;;;5099377;28;20048;-64
2023/06/14 04:35:37;;;;;;;4.43;2.00;;;15.10;99.90;;;;;;5125759;27;20490;-64
2023/06/14 04:38:09;;;;;;;5.65;2.30;;;15.10;99.90;;;;;;5100125;28;20036;-64
2023/06/14 04:40:42;;;;;;;4.75;1.85;;;;;;;;;;5098480;28;20147;-64
2023/06/14 04:43:08;;;;;;;3.80;1.65;;;15.20;99.90;;;;;;5097476;28;20126;-64
2023/06/14 04:45:34;;;;;;;7.35;2.45;;;15.30;99.90;;;;;;5097234;28;20054;-64
2023/06/14 04:48:01;;;;;;;6.10;2.38;;;;;;;;;;5103847;28;20402;-64
2023/06/14 04:50:26;;;;;;;4.47;2.00;;;15.60;99.90;;;;;;5103470;28;20140;-64
2023/06/14 04:52:53;;;;;;;4.80;2.38;;;15.60;99.90;;;;;;5103640;28;20043;-64
2023/06/14 04:55:19;;;;;;;3.78;2.00;;;16.10;99.90;;;;;;5099494;28;20516;-64
2023/06/14 04:57:45;;;;;;;4.78;1.95;;;16.20;99.90;;;;;;5098906;28;20071;-64
2023/06/14 05:00:12;;;;;;;3.42;1.77;;;;;;;;;;5135220;27;20130;-64
2023/06/14 05:02:38;;;;;;;6.72;1.80;;;;;;;;;;5098171;28;20113;-64
2023/06/14 05:05:07;;;;;;;5.28;1.50;;;17.10;99.90;;;;;;5096841;28;20032;-64
2023/06/14 05:07:36;;;;;;;5.15;1.92;;;;;;;;;;5083553;28;20040;-64
2023/06/14 05:10:02;;;;;;;5.45;2.03;;;;;;;;;;5092418;28;20051;-64
2023/06/14 05:12:29;;;;;;;5.18;2.15;;;;;;;;;;5100091;28;20094;-65
2023/06/14 05:14:54;;;;;;;3.88;1.58;;;18.20;99.90;;;;;;5108451;28;20081;-64
2023/06/14 05:17:20;;;;;;;7.43;1.80;;;18.50;99.90;;;;;;5101752;28;20043;-64
2023/06/14 05:19:46;;;;;;;13.95;2.25;;;;;;;;;;5103430;28;20046;-64
2023/06/14 05:22:12;;;;;;;5.75;2.05;;;;;;;;;;5120806;27;20040;-65
2023/06/14 05:24:38;;;;;;;6.03;2.30;;;;;;;;;;5095805;28;20040;-65
2023/06/14 05:27:05;;;;;;;6.38;1.92;;;19.50;99.90;;;;;;5092113;28;20486;-65
2023/06/14 05:29:30;;;;;;;3.90;1.60;;;19.80;99.90;;;;;;5093396;28;20119;-65
2023/06/14 05:31:56;;;;;;;4.93;1.88;;;20.10;99.90;;;;;;5090198;28;20144;-65
2023/06/14 05:34:21;;;;;;;3.67;1.90;;;20.40;99.90;;;;;;5101151;28;20123;-65
2023/06/14 05:36:47;;;;;;;4.82;2.25;;;20.80;99.90;;;;;;5103915;28;20032;-65
2023/06/14 05:39:13;;;;;;;3.15;1.40;;;20.80;99.90;;;;;;5108655;28;20043;-65
2023/06/14 05:41:38;;;;;;;3.28;1.45;;;21.00;99.90;;;;;;5098322;27;20040;-65
2023/06/14 05:44:04;;;;;;;3.50;1.63;;;21.20;99.90;;;;;;5097743;28;20043;-65
2023/06/14 05:46:30;;;;;;;7.07;2.10;;;21.60;99.90;;;;;;5099844;28;20031;-65
2023/06/14 05:48:55;;;;;;;4.47;1.60;;;23.50;99.90;;;;;;5132462;27;20147;-65
2023/06/14 05:51:24;;;;;;;7.35;1.60;;;22.90;99.90;;;;;;5135078;27;20143;-65
2023/06/14 05:53:50;;;;;;;3.88;2.00;;;22.60;99.90;;;;;;5104417;28;20039;-65
2023/06/14 05:56:19;;;;;;;7.95;1.70;;;22.90;99.90;;;;;;5107804;28;20771;-65
2023/06/14 05:58:46;;;;;;;4.63;1.80;;;23.10;99.90;;;;;;5103425;28;20107;-65
2023/06/14 06:01:13;;;;;;;4.05;1.83;;;23.50;99.90;;;;;;5102614;28;20043;-65
2023/06/14 06:03:38;;;;;;;4.68;2.42;;;23.90;99.90;;;;;;5108527;28;20035;-65
2023/06/14 06:06:04;;;;;;;7.78;1.67;;;24.40;99.90;;;;;;5122600;27;20455;-65
2023/06/14 06:08:31;;;;;;;2.80;1.10;;;24.50;99.90;;;;;;5099429;28;20054;-65
2023/06/14 06:10:57;;;;;;;2.58;1.08;;;24.70;99.90;;;;;;5098856;28;20494;-65
2023/06/14 06:13:22;;;;;;;5.13;1.42;;;24.90;99.90;;;;;;5100259;28;20039;-65
2023/06/14 06:15:48;;;;;;;3.50;1.50;;;25.20;99.90;;;;;;5101048;28;20089;-65
2023/06/14 06:18:14;;;;;;;5.15;1.95;;;25.30;99.90;;;;;;5105307;28;20554;-65
2023/06/14 06:20:39;;;;;;;3.28;0.82;;;26.10;99.90;;;;;;5136260;27;20047;-65
2023/06/14 06:23:05;;;;;;;4.10;1.08;;;26.40;99.90;;;;;;5130696;27;20146;-65
2023/06/14 06:25:31;;;;;;;4.80;1.45;;;26.20;99.70;;;;;;5098270;28;20043;-65
2023/06/14 06:27:57;;;;;;;4.20;1.67;;;26.80;99.10;;;;;;5093069;27;20509;-65
2023/06/14 06:30:24;;;;;;;3.55;1.10;;;26.30;99.80;;;;;;5092518;28;20044;-65
2023/06/14 06:32:50;;;;;;;3.33;1.40;;;26.10;99.90;;;;;;5095021;28;20043;-65
2023/06/14 06:35:16;;;;;;;5.07;1.00;;;26.50;99.50;;;;;;5087212;28;20040;-65
2023/06/14 06:37:42;;;;;;;6.43;1.73;;;26.10;99.10;;;;;;5092938;28;20031;-65
2023/06/14 06:40:08;;;;;;;5.75;1.33;;;24.80;99.90;;;;;;5128699;27;20048;-65
2023/06/14 06:42:35;;;;;;;4.32;1.10;;;24.70;99.90;;;;;;5087240;28;20047;-66
2023/06/14 06:45:00;;;;;;;4.50;1.13;;;23.90;99.90;;;;;;5085235;28;20055;-66
2023/06/14 06:47:26;;;;;;;5.43;1.20;;;23.20;99.90;;;;;;5087225;28;20053;-66
2023/06/14 06:49:51;;;;;;;3.22;1.55;;;22.50;99.90;;;;;;5090425;28;20067;-66
2023/06/14 06:52:17;;;;;;;5.60;1.20;;;22.70;99.90;;;;;;5087242;28;20079;-66
2023/06/14 06:54:43;;;;;;;8.48;1.92;;;22.40;99.90;;;;;;5092162;28;20031;-66
2023/06/14 06:57:08;;;;;;;4.65;1.45;;;22.50;99.90;;;;;;5131803;27;20046;-65
2023/06/14 06:59:34;;;;;;;4.20;1.40;;;21.90;99.90;;;;;;5095869;28;20039;-65
2023/06/14 07:02:00;;;;;;;7.43;1.30;;;21.80;99.90;;;;;;5094133;28;20081;-66
2023/06/14 07:04:25;;;;;;;2.53;1.15;;;21.60;99.90;;;;;;5092515;28;20485;-65
2023/06/14 07:06:51;;;;;;;5.88;1.35;;;21.50;99.90;;;;;;5101910;28;20042;-65
2023/06/14 07:09:17;;;;;;;3.70;1.23;;;21.30;99.90;;;;;;5098746;28;20039;-65
2023/06/14 07:11:44;;;;;;;4.97;1.58;;;21.10;99.90;;;;;;5097689;28;20096;-65
2023/06/14 07:14:10;;;;;;;2.40;1.20;;;;;;;;;;5100294;28;20043;-65
2023/06/14 07:16:36;;;;;;;4.05;1.30;;;21.20;99.90;;;;;;5102563;28;20066;-65
2023/06/14 07:19:03;;;;;;;5.80;1.40;;;21.30;99.90;;;;;;5097692;28;20071;-65
2023/06/14 07:21:29;;;;;;;4.38;1.15;;;21.40;99.90;;;;;;5095916;28;20036;-65
2023/06/14 07:23:55;;;;;;;2.75;1.52;;;;;;;;;;5094317;28;20039;-65
2023/06/14 07:26:21;;;;;;;4.53;1.52;;;21.40;99.90;;;;;;5094564;28;20070;-65
2023/06/14 07:28:48;;;;;;;4.00;1.35;;;21.30;99.90;;;;;;5092256;28;20101;-65
2023/06/14 07:31:15;;;;;;;3.13;1.45;;;21.30;99.90;;;;;;5093336;28;20089;-66
2023/06/14 07:33:41;;;;;;;5.25;1.73;;;21.60;99.90;;;;;;5097928;28;20135;-65
2023/06/14 07:36:07;;;;;;;5.45;1.73;;;21.50;99.90;;;;;;5098087;28;20054;-65
2023/06/14 07:38:33;;;;;;;2.67;1.35;;;21.40;99.90;;;;;;5088818;28;20044;-66
2023/06/14 07:40:58;;;;;;;6.18;2.00;;;21.20;99.90;;;;;;5102628;28;20084;-65
2023/06/14 07:43:24;;;;;;;4.20;1.60;;;;;;;;;;5088038;28;20047;-67
2023/06/14 07:45:51;;;;;;;3.33;1.48;;;;;;;;;;5080902;28;20475;-66
2023/06/14 07:48:16;;;;;;;2.70;1.40;;;21.50;99.90;;;;;;5095512;28;20051;-66
2023/06/14 07:50:42;;;;;;;2.80;1.15;;;21.40;99.90;;;;;;5094329;28;20073;-66
2023/06/14 07:53:07;;;;;;;7.05;1.17;;;21.30;99.90;;;;;;5098537;28;20481;-67
2023/06/14 07:55:36;;;;;;;3.65;1.13;;;;;;;;;;5094499;28;20395;-67
2023/06/14 07:58:02;;;;;;;6.32;1.55;;;21.60;99.90;;;;;;5093169;28;20393;-66
2023/06/14 08:00:28;;;;;;;6.70;1.20;;;;;;;;;;5094685;28;20071;-66
2023/06/14 08:02:58;;;;;;;6.30;1.50;;;21.70;99.90;;;;;;5095465;28;20124;-67
2023/06/14 08:05:24;;;;;;;7.03;1.30;;;21.70;99.90;;;;;;5083707;28;20462;-67
2023/06/14 08:07:50;;;;;;;7.13;1.75;;;;;;;;;;5103486;28;20050;-67
2023/06/14 08:10:16;;;;;;;8.02;1.48;;;;;;;;;;5088574;28;20409;-66
2023/06/14 08:12:42;;;;;;;3.70;1.48;;;21.80;99.90;;;;;;5090596;28;20036;-66
2023/06/14 08:15:08;;;;;;;3.85;1.08;;;21.90;99.90;;;;;;5082095;28;20409;-67
2023/06/14 08:17:34;;;;;;;3.15;1.27;;;21.90;99.90;;;;;;5082681;28;20035;-65
2023/06/14 08:20:00;;;;;;;5.63;1.40;;;21.80;99.90;;;;;;5089784;28;20097;-66
2023/06/14 08:22:27;;;;;;;6.10;1.40;;;;;;;;;;5095267;28;20579;-66
2023/06/14 08:24:54;;;;;;;3.15;1.27;;;21.80;99.90;;;;;;5087761;28;20141;-66
2023/06/14 08:27:20;;;;;;;3.17;1.10;;;21.90;99.90;;;;;;5085104;28;20496;-66
2023/06/14 08:29:46;;;;;;;2.92;1.08;;;22.00;99.90;;;;;;5088648;28;20824;-67
2023/06/14 08:32:12;;;;;;;4.00;1.08;;;21.90;99.90;;;;;;5083780;28;20116;-67
2023/06/14 08:34:37;;;;;;;3.63;1.35;;;21.90;99.90;;;;;;5085836;28;20482;-67
2023/06/14 08:37:04;;;;;;;3.22;1.35;;;21.90;99.90;;;;;;5092852;28;20088;-66
2023/06/14 08:39:29;;;;;;;2.72;1.45;;;22.10;99.90;;;;;;5095830;28;20039;-67
2023/06/14 08:41:57;;;;;;;3.47;1.30;;;22.20;99.90;;;;;;5087557;28;20097;-66
2023/06/14 08:44:23;;;;;;;4.53;1.30;;;22.20;99.90;;;;;;5097472;28;20442;-66
2023/06/14 08:46:50;;;;;;;3.53;1.13;;;22.10;99.90;;;;;;5083923;28;20039;-66
2023/06/14 08:49:17;;;;;;;4.00;1.20;;;22.10;99.90;;;;;;5093554;28;20052;-67
2023/06/14 08:51:44;;;;;;;2.80;1.27;;;22.10;99.90;;;;;;5094763;28;20082;-66
2023/06/14 08:54:11;;;;;;;2.42;1.02;;;22.30;99.90;;;;;;5094352;28;20462;-67
2023/06/14 08:56:41;;;;;;;3.72;1.20;;;22.30;99.90;;;;;;5121037;27;20114;-67
2023/06/14 08:59:09;;;;;;;3.78;1.00;;;22.40;99.90;;;;;;5098989;28;20050;-66
2023/06/14 09:01:36;;;;;;;6.57;1.10;;;22.40;99.90;;;;;;5090622;28;20058;-66
2023/06/14 09:04:02;;;;;;;4.32;1.42;;;22.60;99.90;;;;;;5090519;28;20044;-66
2023/06/14 09:06:28;;;;;;;4.90;1.08;;;22.60;99.90;;;;;;5091277;28;20379;-67
2023/06/14 09:08:58;;;;;;;3.38;1.10;;;22.60;99.90;;;;;;5089961;28;20047;-66
2023/06/14 09:11:25;;;;;;;4.70;2.05;;;22.50;99.90;;;;;;5089185;28;20067;-66
2023/06/14 09:13:51;;;;;;;4.65;1.58;;;22.60;99.90;;;;;;5097431;28;20523;-67
2023/06/14 09:16:17;;;;;;;3.53;0.95;;;22.70;99.90;;;;;;5096360;28;20035;-66
2023/06/14 09:18:44;;;;;;;1.92;0.88;;;22.50;99.90;;;;;;5120846;27;20059;-67
2023/06/14 09:21:11;;;;;;;2.92;0.70;;;22.60;99.90;;;;;;5091610;28;20089;-66
2023/06/14 09:23:38;;;;;;;4.25;1.40;;;22.20;99.90;;;;;;5087334;28;20048;-67
2023/06/14 09:26:12;;;;;;;5.55;1.50;;;22.30;99.90;;;;;;5092249;28;20039;-66
2023/06/14 09:28:45;;;;;;;5.38;1.00;;;22.60;99.90;;;;;;5090849;28;20063;-66
2023/06/14 09:31:16;;;;;;;14.60;1.57;;;22.80;99.90;;;;;;5092287;28;20754;-67
2023/06/14 09:33:47;;;;;;;3.17;1.02;;;22.80;99.90;;;;;;5092370;28;20039;-66
2023/06/14 09:36:24;;;;;;;7.07;1.55;;;22.90;99.90;;;;;;5093278;28;20059;-66
2023/06/14 09:39:04;;;;;;;7.80;1.48;;;22.80;99.90;;;;;;5098547;28;20389;-67
2023/06/14 09:41:33;;;;;;;2.65;1.05;;;22.80;99.90;;;;;;5096781;28;20068;-67
2023/06/14 09:44:02;;;;;;;5.60;1.20;;;22.60;99.90;;;;;;5098304;28;20040;-66
2023/06/14 09:46:29;;;;;;;6.55;1.60;;;22.90;99.90;;;;;;5094758;28;20133;-67
2023/06/14 09:48:55;;;;;;;7.13;1.02;;;22.90;99.90;;;;;;5086370;28;20413;-67
2023/06/14 09:51:23;;;;;;;3.20;0.95;;;23.00;99.90;;;;;;5095332;28;20051;-67
2023/06/14 09:53:52;;;;;;;2.60;1.02;;;23.10;99.90;;;;;;5095415;28;20031;-66
2023/06/14 09:56:29;;;;;;;6.18;1.38;;;23.10;99.90;;;;;;5098334;28;20046;-66
2023/06/14 09:58:57;;;;;;;4.38;1.27;;;22.90;99.90;;;;;;5096132;28;20047;-67
2023/06/14 10:01:27;;;;;;;3.28;1.15;;;23.30;99.90;;;;;;5096948;28;20217;-67
2023/06/14 10:03:57;;;;;;;2.83;1.27;;;23.30;99.90;;;;;;5095635;28;20052;-67
2023/06/14 10:06:24;;;;;;;4.95;1.30;;;23.30;99.90;;;;;;5101120;28;20050;-66
2023/06/14 10:08:54;;;;;;;4.70;1.00;;;23.40;99.90;;;;;;5103047;28;20182;-67
2023/06/14 10:11:20;;;;;;;5.25;0.77;;;23.30;99.90;;;;;;5101629;28;20096;-66
2023/06/14 10:13:46;;;;;;;7.97;1.30;;;23.30;99.90;;;;;;5080576;28;20044;-67
2023/06/14 10:16:41;;;;;;;3.08;1.02;;;23.60;99.90;;;;;;5094408;28;20048;-67
2023/06/14 10:19:27;;;;;;;8.10;1.55;;;23.70;99.90;;;;;;5086104;28;20063;-67
2023/06/14 10:22:02;;;;;;;4.70;1.10;;;23.70;99.90;;;;;;5086846;28;20048;-67
2023/06/14 10:24:33;;;;;;;2.15;1.48;;;23.50;99.90;;;;;;5086965;28;20043;-67
2023/06/14 10:27:00;;;;;;;3.63;0.90;;;23.60;99.90;;;;;;5094288;28;20397;-67
2023/06/14 10:29:30;;;;;;;3.38;0.80;;;23.80;99.90;;;;;;5096715;28;20032;-67
2023/06/14 10:31:57;;;;;;;3.92;0.80;;;23.80;99.90;;;;;;5094982;28;20520;-67
2023/06/14 10:34:25;;;;;;;2.95;1.08;;;23.80;99.90;;;;;;5095489;28;20044;-67
2023/06/14 10:37:10;;;;;;;2.70;0.73;;;23.30;99.90;;;;;;5096475;28;20127;-67
2023/06/14 10:39:41;;;;;;;4.03;0.80;;;23.70;99.90;;;;;;5094283;28;20051;-67
2023/06/14 10:42:07;;;;;;;5.90;1.15;;;23.70;99.90;;;;;;5099667;28;20047;-67
2023/06/14 10:44:33;;;;;;;2.28;0.90;;;23.80;99.90;;;;;;5097031;28;20043;-67
2023/06/14 10:47:00;;;;;;;4.28;0.85;;;23.70;99.90;;;;;;5094645;28;20035;-67
2023/06/14 10:49:43;;;;;;;3.08;0.68;;;23.50;99.90;;;;;;5091923;28;20048;-67
2023/06/14 10:52:19;;;;;;;7.10;0.75;;;23.50;99.90;;;;;;5095761;28;20213;-66
2023/06/14 10:55:08;;;;;;;2.83;0.73;;;23.50;99.90;;;;;;5095964;28;20036;-67
2023/06/14 10:57:38;;;;;;;2.30;0.73;;;23.70;99.90;;;;;;5092545;28;20055;-67
2023/06/14 11:00:12;;;;;;;4.20;1.00;;;23.70;99.90;;;;;;5101158;28;20085;-67
2023/06/14 11:02:57;;;;;;;1.45;0.60;;;23.80;99.90;;;;;;5096663;28;20023;-67
2023/06/14 11:05:28;;;;;;;1.10;0.60;;;23.90;99.90;;;;;;5025818;28;20312;-67
2023/06/14 11:08:39;;;;;;;3.28;0.65;;;25.50;99.90;;;;;;5090832;28;20047;-67
2023/06/14 11:11:09;;;;;;;2.08;0.68;;;23.70;99.90;;;;;;5102293;28;20855;-65
2023/06/14 11:13:38;;;;;;;1.40;0.47;;;23.80;99.90;;;;;;5117761;27;20399;-65
2023/06/14 11:16:11;;;;;;;3.30;0.98;;;24.40;99.90;;;;;;5109396;27;20061;-65
2023/06/14 11:18:37;;;;;;;1.47;1.10;;;24.20;99.90;;;;;;5092152;27;20055;-65
2023/06/14 11:21:02;;;;;;;1.77;0.50;;;24.20;99.90;;;;;;5115298;27;20068;-65
2023/06/14 11:23:28;;;;;;;2.60;0.75;;;24.00;99.90;;;;;;5121363;27;20046;-65
2023/06/14 11:25:54;;;;;;;3.42;0.60;;;24.30;99.90;;;;;;5094086;28;20113;-65
2023/06/14 11:28:21;;;;;;;2.78;0.60;;;24.10;99.90;;;;;;5094533;28;20064;-68
2023/06/14 11:30:47;;;;;;;3.67;0.60;;;25.30;99.90;;;;;;5133194;27;20052;-66
2023/06/14 11:33:20;;;;;;;5.82;0.80;;;24.20;99.90;;;;;;5098275;28;20105;-66
2023/06/14 11:35:46;;;;;;;3.38;0.80;;;24.30;99.90;;;;;;5086192;28;20076;-66
2023/06/14 11:38:12;;;;;;;4.70;0.60;;;24.20;99.90;;;;;;5095247;28;20070;-65
2023/06/14 11:40:38;;;;;;;3.25;0.50;;;24.30;99.90;;;;;;5096141;28;20048;-66
2023/06/14 11:43:04;;;;;;;4.28;0.60;;;24.30;99.10;;;;;;5103156;28;20596;-66
2023/06/14 11:45:30;;;;;;;5.50;0.52;;;25.70;99.40;;;;;;5099573;28;20038;-66
2023/06/14 11:47:57;;;;;;;4.25;0.28;;;24.30;99.90;;;;;;5104237;28;20093;-66
2023/06/14 11:50:23;;;;;;;4.43;0.60;;;24.10;99.90;;;;;;5100758;28;20064;-66
2023/06/14 11:52:57;;;;;;;2.30;0.47;;;24.20;99.60;;;;;;5101141;28;20089;-66
2023/06/14 11:55:23;;;;;;;2.67;0.60;;;24.40;99.60;;;;;;5097450;28;20047;-66
2023/06/14 11:57:49;;;;;;;1.05;0.40;;;24.40;99.50;;;;;;5102132;28;20497;-66
2023/06/14 12:00:15;;;;;;;1.92;0.40;;;24.30;99.70;;;;;;5103528;28;20027;-66
2023/06/14 12:02:41;;;;;;;2.50;0.40;;;24.50;99.70;;;;;;5098736;28;20043;-66
2023/06/14 12:05:09;;;;;;;7.82;0.80;;;24.40;99.70;;;;;;5102650;28;20039;-66
2023/06/14 12:07:39;;;;;;;4.22;0.50;;;24.50;99.90;;;;;;5096460;28;20124;-66
2023/06/14 12:10:10;;;;;;;3.33;0.68;;;24.10;99.50;;;;;;5092903;28;20122;-66
2023/06/14 12:12:39;;;;;;;2.42;0.73;;;24.00;99.60;;;;;;5099923;28;20044;-66
2023/06/14 12:15:07;;;;;;;2.08;0.60;;;24.10;99.90;;;;;;5104575;28;20028;-66
2023/06/14 12:17:38;;;;;;;3.10;0.70;;;24.10;99.90;;;;;;5101739;28;20031;-66
2023/06/14 12:20:13;;;;;;;1.00;0.55;;;24.10;99.90;;;;;;5086480;28;20051;-66
2023/06/14 12:22:47;;;;;;;2.88;0.75;;;24.10;99.80;;;;;;5101305;28;20071;-66
2023/06/14 12:25:33;;;;;;;1.83;0.50;;;24.30;99.80;;;;;;5097697;28;20165;-66
2023/06/14 12:28:03;;;;;;;3.25;0.57;;;24.30;99.70;;;;;;5099386;28;20036;-66
2023/06/14 12:30:29;;;;;;;6.28;1.35;;;24.80;99.90;;;;;;5094109;28;20051;-66
2023/06/14 12:32:54;;;;;;;1.75;0.50;;;24.20;99.90;;;;;;5099439;28;20047;-66
2023/06/14 12:35:20;;;;;;;2.25;0.90;;;24.30;99.90;;;;;;5102273;28;20043;-65
2023/06/14 12:37:46;;;;;;;3.15;0.65;;;24.40;99.90;;;;;;5102507;28;20036;-66
2023/06/14 12:40:13;;;;;;;5.57;0.80;;;24.60;99.90;;;;;;5098051;28;20110;-66
2023/06/14 12:42:39;;;;;;;4.75;0.80;;;25.90;99.90;;;;;;5087557;28;20498;-66
2023/06/14 12:45:05;;;;;;;2.90;0.80;;;24.80;99.80;;;;;;5098021;28;20070;-66
2023/06/14 12:47:31;;;;;;;1.60;0.50;;;24.60;99.00;;;;;;5094521;28;20175;-65
2023/06/14 12:49:56;;;;;;;2.92;0.70;;;24.50;99.90;;;;;;5094672;28;20490;-66
2023/06/14 12:52:22;;;;;;;1.80;0.50;;;24.40;99.90;;;;;;5100704;28;20039;-65
2023/06/14 12:54:47;;;;;;;3.65;0.70;;;24.50;99.40;;;;;;5102719;28;20040;-66
2023/06/14 12:57:13;;;;;;;2.03;0.60;;;24.80;99.90;;;;;;5099412;28;20047;-66
2023/06/14 12:59:39;;;;;;;2.80;0.60;;;24.90;99.10;;;;;;5103900;28;20133;-66
2023/06/14 13:02:15;;;;;;;2.70;0.80;;;24.70;99.80;;;;;;5093035;28;20039;-66
2023/06/14 13:04:41;;;;;;;2.47;0.90;;;25.00;99.90;;;;;;5104262;28;20031;-66
2023/06/14 13:07:06;;;;;;;4.13;0.68;;;24.40;99.90;;;;;;5118478;28;20039;-66
2023/06/14 13:09:32;;;;;;;6.45;0.75;;;24.70;99.90;;;;;;5093284;28;20054;-66